sensor_id;sensor_type;location;lat;lon;timestamp;pressure;altitude;pressure_sealevel;temperature;humidity
50867;BME280;36839;51.946;21.002;2023-03-03T00:01:05;100505.09;;;-4.72;100.00
50867;BME280;36839;51.946;21.002;2023-03-03T00:03:32;100500.52;;;-4.72;100.00
50867;BME280;36839;51.946;21.002;2023-03-03T00:06:02;100498.63;;;-4.73;100.00
50867;BME280;36839;51.946;21.002;2023-03-03T00:08:30;100497.63;;;-4.74;100.00
50867;BME280;36839;51.946;21.002;2023-03-03T00:10:58;100497.15;;;-4.75;100.00
50867;BME280;36839;51.946;21.002;2023-03-03T00:13:27;100491.42;;;-4.76;100.00
50867;BME280;36839;51.946;21.002;2023-03-03T00:16:09;100492.50;;;-4.78;100.00
50867;BME280;36839;51.946;21.002;2023-03-03T00:18:44;100493.28;;;-4.78;100.00
50867;BME280;36839;51.946;21.002;2023-03-03T00:21:41;100484.31;;;-4.77;100.00
50867;BME280;36839;51.946;21.002;2023-03-03T00:26:53;100486.11;;;-4.76;100.00
50867;BME280;36839;51.946;21.002;2023-03-03T00:29:35;100482.54;;;-4.77;100.00
50867;BME280;36839;51.946;21.002;2023-03-03T00:34:50;100479.91;;;-4.80;100.00
50867;BME280;36839;51.946;21.002;2023-03-03T00:37:34;100477.45;;;-4.82;100.00
50867;BME280;36839;51.946;21.002;2023-03-03T00:40:15;100475.14;;;-4.85;100.00
50867;BME280;36839;51.946;21.002;2023-03-03T00:42:52;100477.05;;;-4.88;100.00
50867;BME280;36839;51.946;21.002;2023-03-03T00:45:39;100466.77;;;-4.90;100.00
50867;BME280;36839;51.946;21.002;2023-03-03T00:48:21;100461.04;;;-4.91;100.00
50867;BME280;36839;51.946;21.002;2023-03-03T00:50:50;100460.59;;;-4.92;100.00
50867;BME280;36839;51.946;21.002;2023-03-03T00:53:19;100457.88;;;-4.94;100.00
50867;BME280;36839;51.946;21.002;2023-03-03T00:55:48;100453.61;;;-4.94;100.00
50867;BME280;36839;51.946;21.002;2023-03-03T00:58:16;100453.79;;;-4.96;100.00
50867;BME280;36839;51.946;21.002;2023-03-03T01:00:44;100452.52;;;-4.99;100.00
50867;BME280;36839;51.946;21.002;2023-03-03T01:03:15;100449.95;;;-5.02;100.00
50867;BME280;36839;51.946;21.002;2023-03-03T01:05:43;100449.87;;;-5.03;100.00
50867;BME280;36839;51.946;21.002;2023-03-03T01:08:10;100445.83;;;-5.05;100.00
50867;BME280;36839;51.946;21.002;2023-03-03T01:10:46;100445.21;;;-5.06;100.00
50867;BME280;36839;51.946;21.002;2023-03-03T01:13:35;100441.41;;;-5.06;100.00
50867;BME280;36839;51.946;21.002;2023-03-03T01:16:04;100432.63;;;-5.06;100.00
50867;BME280;36839;51.946;21.002;2023-03-03T01:18:33;100428.79;;;-5.08;100.00
50867;BME280;36839;51.946;21.002;2023-03-03T01:21:05;100423.23;;;-5.10;100.00
50867;BME280;36839;51.946;21.002;2023-03-03T01:23:34;100416.22;;;-5.12;100.00
50867;BME280;36839;51.946;21.002;2023-03-03T01:26:05;100416.49;;;-5.11;100.00
50867;BME280;36839;51.946;21.002;2023-03-03T01:28:34;100418.42;;;-5.10;100.00
50867;BME280;36839;51.946;21.002;2023-03-03T01:31:03;100414.29;;;-5.12;100.00
50867;BME280;36839;51.946;21.002;2023-03-03T01:33:32;100410.52;;;-5.14;100.00
50867;BME280;36839;51.946;21.002;2023-03-03T01:36:01;100410.96;;;-5.15;100.00
50867;BME280;36839;51.946;21.002;2023-03-03T01:38:30;100403.85;;;-5.12;100.00
50867;BME280;36839;51.946;21.002;2023-03-03T01:40:58;100398.34;;;-5.12;100.00
50867;BME280;36839;51.946;21.002;2023-03-03T01:43:27;100398.54;;;-5.14;100.00
50867;BME280;36839;51.946;21.002;2023-03-03T01:48:32;100406.01;;;-5.19;100.00
50867;BME280;36839;51.946;21.002;2023-03-03T01:53:54;100401.06;;;-5.16;100.00
50867;BME280;36839;51.946;21.002;2023-03-03T01:56:23;100396.89;;;-5.12;100.00
50867;BME280;36839;51.946;21.002;2023-03-03T02:01:22;100395.98;;;-5.10;100.00
50867;BME280;36839;51.946;21.002;2023-03-03T02:03:50;100395.91;;;-5.10;100.00
50867;BME280;36839;51.946;21.002;2023-03-03T02:06:23;100389.52;;;-5.10;100.00
50867;BME280;36839;51.946;21.002;2023-03-03T02:11:31;100393.69;;;-5.09;100.00
50867;BME280;36839;51.946;21.002;2023-03-03T02:13:59;100387.76;;;-5.11;100.00
50867;BME280;36839;51.946;21.002;2023-03-03T02:16:26;100384.66;;;-5.10;100.00
50867;BME280;36839;51.946;21.002;2023-03-03T02:18:53;100378.64;;;-5.09;100.00
50867;BME280;36839;51.946;21.002;2023-03-03T02:21:22;100380.09;;;-5.08;100.00
50867;BME280;36839;51.946;21.002;2023-03-03T02:24:09;100380.25;;;-5.06;100.00
50867;BME280;36839;51.946;21.002;2023-03-03T02:26:43;100384.05;;;-5.06;100.00
50867;BME280;36839;51.946;21.002;2023-03-03T02:29:11;100382.67;;;-5.07;100.00
50867;BME280;36839;51.946;21.002;2023-03-03T02:31:38;100379.20;;;-5.06;100.00
50867;BME280;36839;51.946;21.002;2023-03-03T02:34:06;100384.69;;;-5.06;100.00
50867;BME280;36839;51.946;21.002;2023-03-03T02:36:35;100387.02;;;-5.06;100.00
50867;BME280;36839;51.946;21.002;2023-03-03T02:44:32;100384.33;;;-5.03;100.00
50867;BME280;36839;51.946;21.002;2023-03-03T02:46:59;100388.21;;;-5.00;100.00
50867;BME280;36839;51.946;21.002;2023-03-03T02:49:32;100387.23;;;-4.96;100.00
50867;BME280;36839;51.946;21.002;2023-03-03T02:52:02;100384.32;;;-4.91;100.00
50867;BME280;36839;51.946;21.002;2023-03-03T02:54:30;100382.16;;;-4.86;100.00
50867;BME280;36839;51.946;21.002;2023-03-03T02:56:57;100381.45;;;-4.83;100.00
50867;BME280;36839;51.946;21.002;2023-03-03T02:59:25;100380.02;;;-4.79;100.00
50867;BME280;36839;51.946;21.002;2023-03-03T03:01:53;100384.55;;;-4.81;100.00
50867;BME280;36839;51.946;21.002;2023-03-03T03:04:25;100380.88;;;-4.84;100.00
50867;BME280;36839;51.946;21.002;2023-03-03T03:06:54;100375.22;;;-4.85;100.00
50867;BME280;36839;51.946;21.002;2023-03-03T03:09:22;100373.19;;;-4.82;100.00
50867;BME280;36839;51.946;21.002;2023-03-03T03:11:51;100371.50;;;-4.82;100.00
50867;BME280;36839;51.946;21.002;2023-03-03T03:14:18;100374.75;;;-4.84;100.00
50867;BME280;36839;51.946;21.002;2023-03-03T03:16:45;100369.93;;;-4.86;100.00
50867;BME280;36839;51.946;21.002;2023-03-03T03:19:12;100369.80;;;-4.86;100.00
50867;BME280;36839;51.946;21.002;2023-03-03T03:21:39;100367.70;;;-4.85;100.00
50867;BME280;36839;51.946;21.002;2023-03-03T03:24:06;100359.59;;;-4.85;100.00
50867;BME280;36839;51.946;21.002;2023-03-03T03:26:33;100360.91;;;-4.85;100.00
50867;BME280;36839;51.946;21.002;2023-03-03T03:29:00;100365.70;;;-4.88;100.00
50867;BME280;36839;51.946;21.002;2023-03-03T03:31:28;100364.64;;;-4.93;100.00
50867;BME280;36839;51.946;21.002;2023-03-03T03:33:56;100366.30;;;-4.97;100.00
50867;BME280;36839;51.946;21.002;2023-03-03T03:36:22;100369.60;;;-4.99;100.00
50867;BME280;36839;51.946;21.002;2023-03-03T03:38:52;100373.10;;;-5.00;100.00
50867;BME280;36839;51.946;21.002;2023-03-03T03:41:19;100369.19;;;-4.97;100.00
50867;BME280;36839;51.946;21.002;2023-03-03T03:43:46;100371.05;;;-4.93;100.00
50867;BME280;36839;51.946;21.002;2023-03-03T03:46:13;100366.41;;;-4.90;100.00
50867;BME280;36839;51.946;21.002;2023-03-03T03:48:40;100367.42;;;-4.84;100.00
50867;BME280;36839;51.946;21.002;2023-03-03T03:51:10;100366.75;;;-4.78;100.00
50867;BME280;36839;51.946;21.002;2023-03-03T03:53:37;100364.66;;;-4.72;100.00
50867;BME280;36839;51.946;21.002;2023-03-03T03:56:05;100368.57;;;-4.69;100.00
50867;BME280;36839;51.946;21.002;2023-03-03T03:58:32;100368.27;;;-4.67;100.00
50867;BME280;36839;51.946;21.002;2023-03-03T04:01:04;100368.23;;;-4.69;100.00
50867;BME280;36839;51.946;21.002;2023-03-03T04:03:32;100368.88;;;-4.71;100.00
50867;BME280;36839;51.946;21.002;2023-03-03T04:05:59;100369.72;;;-4.71;100.00
50867;BME280;36839;51.946;21.002;2023-03-03T04:08:26;100363.35;;;-4.70;100.00
50867;BME280;36839;51.946;21.002;2023-03-03T04:10:53;100358.10;;;-4.71;100.00
50867;BME280;36839;51.946;21.002;2023-03-03T04:13:20;100364.31;;;-4.75;100.00
50867;BME280;36839;51.946;21.002;2023-03-03T04:15:47;100366.69;;;-4.81;100.00
50867;BME280;36839;51.946;21.002;2023-03-03T04:18:14;100363.49;;;-4.83;100.00
50867;BME280;36839;51.946;21.002;2023-03-03T04:20:41;100350.21;;;-4.83;100.00
50867;BME280;36839;51.946;21.002;2023-03-03T04:23:08;100336.41;;;-4.81;100.00
50867;BME280;36839;51.946;21.002;2023-03-03T04:25:36;100328.63;;;-4.86;100.00
50867;BME280;36839;51.946;21.002;2023-03-03T04:28:03;100325.09;;;-4.93;100.00
50867;BME280;36839;51.946;21.002;2023-03-03T04:30:30;100337.45;;;-4.99;100.00
50867;BME280;36839;51.946;21.002;2023-03-03T04:32:58;100335.65;;;-5.04;100.00
50867;BME280;36839;51.946;21.002;2023-03-03T04:35:25;100334.50;;;-5.06;100.00
50867;BME280;36839;51.946;21.002;2023-03-03T04:37:52;100332.34;;;-5.05;100.00
50867;BME280;36839;51.946;21.002;2023-03-03T04:40:19;100323.64;;;-5.01;100.00
50867;BME280;36839;51.946;21.002;2023-03-03T04:42:46;100312.56;;;-5.00;100.00
50867;BME280;36839;51.946;21.002;2023-03-03T04:45:13;100318.70;;;-5.03;100.00
50867;BME280;36839;51.946;21.002;2023-03-03T04:47:41;100320.70;;;-5.07;100.00
50867;BME280;36839;51.946;21.002;2023-03-03T04:50:09;100318.59;;;-5.09;100.00
50867;BME280;36839;51.946;21.002;2023-03-03T04:52:39;100318.80;;;-5.10;100.00
50867;BME280;36839;51.946;21.002;2023-03-03T04:55:07;100320.17;;;-5.10;100.00
50867;BME280;36839;51.946;21.002;2023-03-03T04:57:34;100311.79;;;-5.07;100.00
50867;BME280;36839;51.946;21.002;2023-03-03T05:00:01;100314.37;;;-5.05;100.00
50867;BME280;36839;51.946;21.002;2023-03-03T05:02:28;100314.02;;;-5.03;100.00
50867;BME280;36839;51.946;21.002;2023-03-03T05:04:55;100312.23;;;-5.01;100.00
50867;BME280;36839;51.946;21.002;2023-03-03T05:07:23;100310.05;;;-5.01;100.00
50867;BME280;36839;51.946;21.002;2023-03-03T05:09:50;100310.48;;;-5.00;100.00
50867;BME280;36839;51.946;21.002;2023-03-03T05:12:17;100308.17;;;-5.02;100.00
50867;BME280;36839;51.946;21.002;2023-03-03T05:14:45;100304.80;;;-5.04;100.00
50867;BME280;36839;51.946;21.002;2023-03-03T05:17:12;100301.20;;;-5.04;100.00
50867;BME280;36839;51.946;21.002;2023-03-03T05:19:39;100300.26;;;-5.04;100.00
50867;BME280;36839;51.946;21.002;2023-03-03T05:22:06;100301.64;;;-5.03;100.00
50867;BME280;36839;51.946;21.002;2023-03-03T05:24:33;100303.80;;;-5.02;100.00
50867;BME280;36839;51.946;21.002;2023-03-03T05:27:00;100307.04;;;-5.02;100.00
50867;BME280;36839;51.946;21.002;2023-03-03T05:29:28;100306.16;;;-5.02;100.00
50867;BME280;36839;51.946;21.002;2023-03-03T05:31:57;100306.38;;;-5.01;100.00
50867;BME280;36839;51.946;21.002;2023-03-03T05:34:24;100308.92;;;-4.98;100.00
50867;BME280;36839;51.946;21.002;2023-03-03T05:36:51;100313.26;;;-4.95;100.00
50867;BME280;36839;51.946;21.002;2023-03-03T05:39:19;100312.63;;;-4.92;100.00
50867;BME280;36839;51.946;21.002;2023-03-03T05:41:46;100316.44;;;-4.89;100.00
50867;BME280;36839;51.946;21.002;2023-03-03T05:44:13;100319.16;;;-4.85;100.00
50867;BME280;36839;51.946;21.002;2023-03-03T05:46:41;100316.73;;;-4.61;100.00
50867;BME280;36839;51.946;21.002;2023-03-03T05:49:08;100315.44;;;-4.51;100.00
50867;BME280;36839;51.946;21.002;2023-03-03T05:51:35;100313.75;;;-4.46;100.00
50867;BME280;36839;51.946;21.002;2023-03-03T05:54:04;100315.40;;;-4.40;100.00
50867;BME280;36839;51.946;21.002;2023-03-03T05:56:32;100315.88;;;-4.33;100.00
50867;BME280;36839;51.946;21.002;2023-03-03T05:59:00;100319.13;;;-4.23;100.00
50867;BME280;36839;51.946;21.002;2023-03-03T06:01:29;100318.49;;;-4.14;100.00
50867;BME280;36839;51.946;21.002;2023-03-03T06:03:57;100321.29;;;-4.04;100.00
50867;BME280;36839;51.946;21.002;2023-03-03T06:06:24;100327.83;;;-3.94;100.00
50867;BME280;36839;51.946;21.002;2023-03-03T06:08:51;100332.41;;;-3.84;100.00
50867;BME280;36839;51.946;21.002;2023-03-03T06:11:19;100333.21;;;-3.71;100.00
50867;BME280;36839;51.946;21.002;2023-03-03T06:13:46;100329.31;;;-3.60;100.00
50867;BME280;36839;51.946;21.002;2023-03-03T06:16:13;100320.20;;;-3.48;100.00
50867;BME280;36839;51.946;21.002;2023-03-03T06:18:40;100320.14;;;-3.36;100.00
50867;BME280;36839;51.946;21.002;2023-03-03T06:21:07;100322.33;;;-3.24;100.00
50867;BME280;36839;51.946;21.002;2023-03-03T06:23:34;100318.61;;;-3.12;100.00
50867;BME280;36839;51.946;21.002;2023-03-03T06:26:01;100315.67;;;-3.03;100.00
50867;BME280;36839;51.946;21.002;2023-03-03T06:28:28;100309.45;;;-2.93;100.00
50867;BME280;36839;51.946;21.002;2023-03-03T06:30:56;100311.34;;;-2.84;100.00
50867;BME280;36839;51.946;21.002;2023-03-03T06:33:24;100312.08;;;-2.75;100.00
50867;BME280;36839;51.946;21.002;2023-03-03T06:35:52;100306.21;;;-2.66;100.00
50867;BME280;36839;51.946;21.002;2023-03-03T06:38:20;100309.95;;;-2.56;100.00
50867;BME280;36839;51.946;21.002;2023-03-03T06:40:47;100315.98;;;-2.48;100.00
50867;BME280;36839;51.946;21.002;2023-03-03T06:43:14;100316.34;;;-2.42;100.00
50867;BME280;36839;51.946;21.002;2023-03-03T06:45:41;100315.20;;;-2.35;100.00
50867;BME280;36839;51.946;21.002;2023-03-03T06:48:09;100320.08;;;-2.31;100.00
50867;BME280;36839;51.946;21.002;2023-03-03T06:50:36;100316.59;;;-2.27;100.00
50867;BME280;36839;51.946;21.002;2023-03-03T06:53:13;100320.61;;;-2.23;100.00
50867;BME280;36839;51.946;21.002;2023-03-03T06:55:41;100316.77;;;-2.21;100.00
50867;BME280;36839;51.946;21.002;2023-03-03T06:58:16;100313.58;;;-2.16;100.00
50867;BME280;36839;51.946;21.002;2023-03-03T07:00:49;100314.75;;;-2.15;100.00
50867;BME280;36839;51.946;21.002;2023-03-03T07:03:24;100317.91;;;-2.07;100.00
50867;BME280;36839;51.946;21.002;2023-03-03T07:05:54;100317.37;;;-2.00;100.00
50867;BME280;36839;51.946;21.002;2023-03-03T07:08:23;100318.85;;;-2.02;100.00
50867;BME280;36839;51.946;21.002;2023-03-03T07:10:51;100316.30;;;-2.02;100.00
50867;BME280;36839;51.946;21.002;2023-03-03T07:13:23;100318.45;;;-2.00;100.00
50867;BME280;36839;51.946;21.002;2023-03-03T07:15:52;100322.78;;;-1.98;100.00
50867;BME280;36839;51.946;21.002;2023-03-03T07:18:52;100321.39;;;-1.98;100.00
50867;BME280;36839;51.946;21.002;2023-03-03T07:21:32;100317.34;;;-2.03;100.00
50867;BME280;36839;51.946;21.002;2023-03-03T07:24:29;100321.51;;;-2.03;100.00
50867;BME280;36839;51.946;21.002;2023-03-03T07:27:22;100322.40;;;-1.98;100.00
50867;BME280;36839;51.946;21.002;2023-03-03T07:29:52;100316.84;;;-1.94;100.00
50867;BME280;36839;51.946;21.002;2023-03-03T07:32:33;100319.98;;;-1.89;100.00
50867;BME280;36839;51.946;21.002;2023-03-03T07:35:44;100306.30;;;-1.79;100.00
50867;BME280;36839;51.946;21.002;2023-03-03T07:38:16;100303.46;;;-1.66;100.00
50867;BME280;36839;51.946;21.002;2023-03-03T07:40:50;100296.16;;;-1.57;100.00
50867;BME280;36839;51.946;21.002;2023-03-03T07:43:35;100303.71;;;-1.46;100.00
50867;BME280;36839;51.946;21.002;2023-03-03T07:48:38;100304.86;;;-1.33;100.00
50867;BME280;36839;51.946;21.002;2023-03-03T07:51:20;100310.92;;;-1.29;100.00
50867;BME280;36839;51.946;21.002;2023-03-03T07:53:48;100313.92;;;-1.31;100.00
50867;BME280;36839;51.946;21.002;2023-03-03T07:56:29;100313.21;;;-1.28;100.00
50867;BME280;36839;51.946;21.002;2023-03-03T07:58:57;100314.89;;;-1.23;100.00
50867;BME280;36839;51.946;21.002;2023-03-03T08:01:40;100318.66;;;-1.17;100.00
50867;BME280;36839;51.946;21.002;2023-03-03T08:04:38;100326.34;;;-1.16;100.00
50867;BME280;36839;51.946;21.002;2023-03-03T08:07:24;100317.41;;;-1.14;100.00
50867;BME280;36839;51.946;21.002;2023-03-03T08:09:59;100325.06;;;-1.09;100.00
50867;BME280;36839;51.946;21.002;2023-03-03T08:12:30;100326.44;;;-1.04;100.00
50867;BME280;36839;51.946;21.002;2023-03-03T08:15:21;100333.30;;;-0.97;100.00
50867;BME280;36839;51.946;21.002;2023-03-03T08:17:51;100328.53;;;-0.92;100.00
50867;BME280;36839;51.946;21.002;2023-03-03T08:20:45;100337.15;;;-0.84;100.00
50867;BME280;36839;51.946;21.002;2023-03-03T08:23:14;100331.42;;;-0.73;100.00
50867;BME280;36839;51.946;21.002;2023-03-03T08:25:42;100333.23;;;-0.68;100.00
50867;BME280;36839;51.946;21.002;2023-03-03T08:28:11;100334.70;;;-0.67;100.00
50867;BME280;36839;51.946;21.002;2023-03-03T08:30:38;100329.08;;;-0.61;100.00
50867;BME280;36839;51.946;21.002;2023-03-03T08:33:06;100336.20;;;-0.52;100.00
50867;BME280;36839;51.946;21.002;2023-03-03T08:35:33;100332.07;;;-0.42;100.00
50867;BME280;36839;51.946;21.002;2023-03-03T08:38:00;100339.28;;;-0.33;100.00
50867;BME280;36839;51.946;21.002;2023-03-03T08:40:27;100340.46;;;-0.28;100.00
50867;BME280;36839;51.946;21.002;2023-03-03T08:42:54;100343.61;;;-0.30;100.00
50867;BME280;36839;51.946;21.002;2023-03-03T08:45:24;100340.71;;;-0.31;100.00
50867;BME280;36839;51.946;21.002;2023-03-03T08:47:52;100342.48;;;-0.30;100.00
50867;BME280;36839;51.946;21.002;2023-03-03T08:50:19;100343.60;;;-0.26;100.00
50867;BME280;36839;51.946;21.002;2023-03-03T08:52:47;100345.34;;;-0.17;100.00
50867;BME280;36839;51.946;21.002;2023-03-03T08:55:15;100346.04;;;-0.11;100.00
50867;BME280;36839;51.946;21.002;2023-03-03T08:57:42;100352.58;;;-0.10;100.00
50867;BME280;36839;51.946;21.002;2023-03-03T09:00:12;100351.96;;;-0.12;100.00
50867;BME280;36839;51.946;21.002;2023-03-03T09:02:40;100345.85;;;-0.04;100.00
50867;BME280;36839;51.946;21.002;2023-03-03T09:05:08;100349.28;;;-0.03;100.00
50867;BME280;36839;51.946;21.002;2023-03-03T09:07:35;100336.37;;;0.08;100.00
50867;BME280;36839;51.946;21.002;2023-03-03T09:10:02;100334.66;;;0.23;100.00
50867;BME280;36839;51.946;21.002;2023-03-03T09:12:43;100334.49;;;0.25;100.00
50867;BME280;36839;51.946;21.002;2023-03-03T09:15:26;100333.55;;;0.34;100.00
50867;BME280;36839;51.946;21.002;2023-03-03T09:18:20;100336.79;;;0.48;100.00
50867;BME280;36839;51.946;21.002;2023-03-03T09:20:50;100332.84;;;0.53;100.00
50867;BME280;36839;51.946;21.002;2023-03-03T09:23:34;100330.09;;;0.64;100.00
50867;BME280;36839;51.946;21.002;2023-03-03T09:26:44;100327.38;;;0.77;100.00
50867;BME280;36839;51.946;21.002;2023-03-03T09:31:44;100348.86;;;0.64;100.00
50867;BME280;36839;51.946;21.002;2023-03-03T09:37:19;100354.94;;;0.40;100.00
50867;BME280;36839;51.946;21.002;2023-03-03T09:39:51;100343.22;;;0.37;100.00
50867;BME280;36839;51.946;21.002;2023-03-03T09:45:13;100336.09;;;0.33;100.00
50867;BME280;36839;51.946;21.002;2023-03-03T09:50:35;100325.59;;;0.39;100.00
50867;BME280;36839;51.946;21.002;2023-03-03T09:56:18;100307.96;;;0.50;100.00
50867;BME280;36839;51.946;21.002;2023-03-03T10:04:34;100305.40;;;0.47;100.00
50867;BME280;36839;51.946;21.002;2023-03-03T10:12:27;100295.46;;;0.50;100.00
50867;BME280;36839;51.946;21.002;2023-03-03T10:18:41;100283.41;;;0.62;100.00
50867;BME280;36839;51.946;21.002;2023-03-03T10:26:20;100283.42;;;0.75;100.00
50867;BME280;36839;51.946;21.002;2023-03-03T10:29:47;100286.25;;;0.89;100.00
50867;BME280;36839;51.946;21.002;2023-03-03T10:35:10;100288.74;;;0.98;100.00
50867;BME280;36839;51.946;21.002;2023-03-03T10:37:55;100286.60;;;0.98;100.00
50867;BME280;36839;51.946;21.002;2023-03-03T10:40:32;100290.79;;;0.98;100.00
50867;BME280;36839;51.946;21.002;2023-03-03T10:43:05;100287.36;;;0.96;100.00
50867;BME280;36839;51.946;21.002;2023-03-03T10:46:05;100283.71;;;0.93;100.00
50867;BME280;36839;51.946;21.002;2023-03-03T10:52:22;100275.77;;;1.02;100.00
50867;BME280;36839;51.946;21.002;2023-03-03T10:57:46;100280.16;;;1.01;100.00
50867;BME280;36839;51.946;21.002;2023-03-03T11:08:54;100288.92;;;0.83;100.00
50867;BME280;36839;51.946;21.002;2023-03-03T11:19:59;100291.39;;;0.59;100.00
50867;BME280;36839;51.946;21.002;2023-03-03T11:22:38;100295.87;;;0.48;100.00
50867;BME280;36839;51.946;21.002;2023-03-03T11:33:14;100303.38;;;0.19;100.00
50867;BME280;36839;51.946;21.002;2023-03-03T11:36:14;100304.51;;;0.10;100.00
50867;BME280;36839;51.946;21.002;2023-03-03T11:39:02;100308.65;;;0.04;100.00
50867;BME280;36839;51.946;21.002;2023-03-03T11:41:38;100305.63;;;-0.03;100.00
50867;BME280;36839;51.946;21.002;2023-03-03T11:44:16;100293.52;;;0.03;100.00
50867;BME280;36839;51.946;21.002;2023-03-03T11:49:38;100282.98;;;0.12;100.00
50867;BME280;36839;51.946;21.002;2023-03-03T12:00:19;100273.64;;;0.30;100.00
50867;BME280;36839;51.946;21.002;2023-03-03T12:03:02;100277.41;;;0.24;100.00
50867;BME280;36839;51.946;21.002;2023-03-03T12:05:46;100275.11;;;0.16;100.00
50867;BME280;36839;51.946;21.002;2023-03-03T12:08:41;100272.77;;;0.07;100.00
50867;BME280;36839;51.946;21.002;2023-03-03T12:11:48;100274.02;;;-0.09;100.00
50867;BME280;36839;51.946;21.002;2023-03-03T12:22:20;100280.15;;;-0.23;100.00
50867;BME280;36839;51.946;21.002;2023-03-03T12:30:22;100280.34;;;-0.33;100.00
50867;BME280;36839;51.946;21.002;2023-03-03T12:47:11;100288.96;;;-0.52;100.00
50867;BME280;36839;51.946;21.002;2023-03-03T13:01:11;100287.67;;;-0.61;100.00
50867;BME280;36839;51.946;21.002;2023-03-03T13:06:27;100289.93;;;-0.55;100.00
50867;BME280;36839;51.946;21.002;2023-03-03T13:17:52;100290.60;;;-0.75;100.00
50867;BME280;36839;51.946;21.002;2023-03-03T13:22:52;100283.98;;;-0.84;100.00
50867;BME280;36839;51.946;21.002;2023-03-03T13:25:34;100289.22;;;-0.84;100.00
50867;BME280;36839;51.946;21.002;2023-03-03T13:30:46;100289.63;;;-0.95;100.00
50867;BME280;36839;51.946;21.002;2023-03-03T13:33:15;100292.89;;;-1.02;100.00
50867;BME280;36839;51.946;21.002;2023-03-03T13:35:43;100297.55;;;-1.06;100.00
50867;BME280;36839;51.946;21.002;2023-03-03T13:38:17;100289.43;;;-1.11;100.00
50867;BME280;36839;51.946;21.002;2023-03-03T13:40:57;100284.28;;;-1.08;100.00
50867;BME280;36839;51.946;21.002;2023-03-03T13:43:32;100291.10;;;-1.11;100.00
50867;BME280;36839;51.946;21.002;2023-03-03T13:46:17;100288.64;;;-1.14;100.00
50867;BME280;36839;51.946;21.002;2023-03-03T13:48:57;100290.22;;;-1.15;100.00
50867;BME280;36839;51.946;21.002;2023-03-03T13:51:47;100287.30;;;-1.18;100.00
50867;BME280;36839;51.946;21.002;2023-03-03T14:05:44;100274.90;;;-1.21;100.00
50867;BME280;36839;51.946;21.002;2023-03-03T14:17:16;100269.14;;;-1.37;100.00
50867;BME280;36839;51.946;21.002;2023-03-03T14:19:49;100264.98;;;-1.35;100.00
50867;BME280;36839;51.946;21.002;2023-03-03T14:22:29;100263.27;;;-1.36;100.00
50867;BME280;36839;51.946;21.002;2023-03-03T14:25:04;100260.89;;;-1.36;100.00
50867;BME280;36839;51.946;21.002;2023-03-03T14:33:15;100267.33;;;-1.43;100.00
50867;BME280;36839;51.946;21.002;2023-03-03T14:38:43;100253.85;;;-1.40;100.00
50867;BME280;36839;51.946;21.002;2023-03-03T14:43:40;100258.39;;;-1.44;100.00
50867;BME280;36839;51.946;21.002;2023-03-03T14:48:59;100266.77;;;-1.41;100.00
50867;BME280;36839;51.946;21.002;2023-03-03T14:51:43;100266.88;;;-1.42;100.00
50867;BME280;36839;51.946;21.002;2023-03-03T14:54:36;100265.86;;;-1.39;100.00
50867;BME280;36839;51.946;21.002;2023-03-03T15:02:34;100272.19;;;-1.37;100.00
50867;BME280;36839;51.946;21.002;2023-03-03T15:07:56;100272.12;;;-1.39;100.00
50867;BME280;36839;51.946;21.002;2023-03-03T15:10:39;100267.23;;;-1.40;100.00
50867;BME280;36839;51.946;21.002;2023-03-03T15:13:34;100274.69;;;-1.51;100.00
50867;BME280;36839;51.946;21.002;2023-03-03T15:16:03;100271.05;;;-1.56;100.00
50867;BME280;36839;51.946;21.002;2023-03-03T15:18:32;100275.62;;;-1.61;100.00
50867;BME280;36839;51.946;21.002;2023-03-03T15:21:28;100268.82;;;-1.64;100.00
50867;BME280;36839;51.946;21.002;2023-03-03T15:24:19;100270.29;;;-1.67;100.00
50867;BME280;36839;51.946;21.002;2023-03-03T15:26:53;100267.95;;;-1.68;100.00
50867;BME280;36839;51.946;21.002;2023-03-03T15:40:09;100270.11;;;-1.59;100.00
50867;BME280;36839;51.946;21.002;2023-03-03T15:42:48;100267.92;;;-1.62;100.00
50867;BME280;36839;51.946;21.002;2023-03-03T15:50:52;100265.34;;;-1.67;100.00
50867;BME280;36839;51.946;21.002;2023-03-03T16:04:24;100259.57;;;-1.79;100.00
50867;BME280;36839;51.946;21.002;2023-03-03T16:07:04;100261.96;;;-1.78;100.00
50867;BME280;36839;51.946;21.002;2023-03-03T16:15:23;100254.66;;;-1.78;100.00
50867;BME280;36839;51.946;21.002;2023-03-03T16:18:06;100257.14;;;-1.80;100.00
50867;BME280;36839;51.946;21.002;2023-03-03T16:20:38;100260.80;;;-1.82;100.00
50867;BME280;36839;51.946;21.002;2023-03-03T16:23:30;100258.92;;;-1.79;100.00
50867;BME280;36839;51.946;21.002;2023-03-03T16:31:35;100257.47;;;-1.78;100.00
50867;BME280;36839;51.946;21.002;2023-03-03T16:34:17;100264.23;;;-1.77;100.00
50867;BME280;36839;51.946;21.002;2023-03-03T16:37:11;100256.19;;;-1.75;100.00
50867;BME280;36839;51.946;21.002;2023-03-03T16:39:49;100258.79;;;-1.74;100.00
50867;BME280;36839;51.946;21.002;2023-03-03T16:42:33;100254.23;;;-1.75;100.00
50867;BME280;36839;51.946;21.002;2023-03-03T16:48:13;100254.33;;;-1.75;100.00
50867;BME280;36839;51.946;21.002;2023-03-03T16:51:25;100253.29;;;-1.75;100.00
50867;BME280;36839;51.946;21.002;2023-03-03T16:54:17;100256.00;;;-1.67;100.00
50867;BME280;36839;51.946;21.002;2023-03-03T16:56:52;100258.08;;;-1.64;100.00
50867;BME280;36839;51.946;21.002;2023-03-03T17:10:25;100252.77;;;-1.62;100.00
50867;BME280;36839;51.946;21.002;2023-03-03T17:13:06;100247.22;;;-1.62;100.00
50867;BME280;36839;51.946;21.002;2023-03-03T17:15:50;100243.98;;;-1.64;100.00